createdAt,value
2018-05-18T00:00:16.717Z,85.17
2018-05-18T00:01:16.839Z,85.65
2018-05-18T00:02:16.778Z,85.36
2018-05-18T00:03:16.767Z,85.55
2018-05-18T00:04:16.799Z,85.27
2018-05-18T00:05:16.794Z,84.59
2018-05-18T00:06:16.908Z,84.11
2018-05-18T00:07:16.849Z,84.21
2018-05-18T00:08:16.870Z,84.21
2018-05-18T00:09:16.857Z,83.48
2018-05-18T00:10:16.880Z,83.92
2018-05-18T00:11:17.009Z,83.53
2018-05-18T00:12:16.905Z,83.25
2018-05-18T00:13:16.939Z,83.34
2018-05-18T00:14:16.929Z,83.19
2018-05-18T00:15:16.969Z,83.44
2018-05-18T00:16:17.140Z,83.29
2018-05-18T00:17:17.003Z,83.19
2018-05-18T00:18:16.986Z,83.06
2018-05-18T00:19:17.017Z,83.19
2018-05-18T00:20:17.017Z,83.63
2018-05-18T00:21:17.136Z,83.29
2018-05-18T00:22:17.053Z,83.53
2018-05-18T00:23:17.087Z,83.92
2018-05-18T00:24:17.101Z,84.40
2018-05-18T00:25:17.121Z,84.78
2018-05-18T00:26:17.209Z,84.78
2018-05-18T00:27:17.159Z,84.30
2018-05-18T00:28:17.152Z,84.11
2018-05-18T00:29:17.159Z,83.63
2018-05-18T00:30:17.197Z,83.73
2018-05-18T00:31:17.278Z,82.86
2018-05-18T00:32:17.224Z,82.29
2018-05-18T00:33:17.211Z,82.48
2018-05-18T00:34:17.260Z,82.76
2018-05-18T00:35:17.268Z,81.99
2018-05-18T00:36:17.354Z,81.04
2018-05-18T00:37:17.297Z,80.84
2018-05-18T00:38:17.281Z,80.84
2018-05-18T00:39:17.297Z,80.84
2018-05-18T00:40:17.338Z,80.75
2018-05-18T00:41:17.462Z,81.13
2018-05-18T00:42:17.358Z,80.75
2018-05-18T00:43:17.377Z,80.46
2018-05-18T00:44:17.375Z,80.75
2018-05-18T00:45:17.404Z,80.88
2018-05-18T00:46:17.432Z,80.79
2018-05-18T00:47:17.517Z,80.75
2018-05-18T00:48:17.447Z,80.75
2018-05-18T00:49:17.472Z,80.40
2018-05-18T00:50:17.461Z,80.50
2018-05-18T00:51:17.484Z,80.11
2018-05-18T00:52:17.589Z,80.11
2018-05-18T00:53:17.521Z,80.02
2018-05-18T00:54:17.524Z,80.02
2018-05-18T00:55:17.568Z,79.82
2018-05-18T00:56:17.567Z,79.73
2018-05-18T00:57:17.662Z,79.82
2018-05-18T00:58:17.609Z,79.82
2018-05-18T00:59:17.600Z,79.92
2018-05-18T01:00:17.638Z,79.92
2018-05-18T01:01:17.627Z,80.11
2018-05-18T01:02:17.739Z,80.11
2018-05-18T01:03:17.665Z,80.21
2018-05-18T01:04:17.694Z,79.92
2018-05-18T01:05:17.709Z,80.30
2018-05-18T01:06:17.727Z,80.02
2018-05-18T01:07:17.843Z,80.30
2018-05-18T01:08:17.745Z,80.30
2018-05-18T01:09:17.751Z,79.92
2018-05-18T01:10:17.784Z,80.60
2018-05-18T01:11:17.785Z,80.21
2018-05-18T01:12:17.890Z,80.60
2018-05-18T01:13:17.802Z,80.50
2018-05-18T01:14:17.842Z,80.40
2018-05-18T01:15:17.861Z,80.60
2018-05-18T01:16:17.858Z,80.30
2018-05-18T01:17:17.966Z,79.92
2018-05-18T01:18:17.872Z,80.40
2018-05-18T01:19:17.895Z,80.40
2018-05-18T01:20:17.933Z,80.40
2018-05-18T01:21:17.948Z,80.27
2018-05-18T01:22:18.046Z,80.40
2018-05-18T01:23:17.950Z,80.17
2018-05-18T01:24:17.965Z,80.75
2018-05-18T01:25:17.984Z,80.75
2018-05-18T01:26:17.994Z,81.71
2018-05-18T01:27:18.105Z,81.32
2018-05-18T01:28:18.029Z,81.32
2018-05-18T01:29:18.043Z,81.90
2018-05-18T01:30:18.062Z,81.90
2018-05-18T01:31:18.071Z,82.48
2018-05-18T01:32:18.237Z,82.38
2018-05-18T01:33:18.114Z,82.29
2018-05-18T01:34:18.114Z,82.67
2018-05-18T01:35:18.157Z,83.53
2018-05-18T01:36:18.168Z,83.34
2018-05-18T01:37:18.336Z,83.53
2018-05-18T01:38:18.198Z,84.21
2018-05-18T01:39:18.215Z,83.83
2018-05-18T01:40:18.227Z,84.21
2018-05-18T01:41:18.223Z,84.59
2018-05-18T01:42:18.413Z,85.07
2018-05-18T01:43:18.245Z,84.98
2018-05-18T01:44:18.254Z,84.69
2018-05-18T01:45:18.276Z,85.46
2018-05-18T01:46:18.297Z,85.46
2018-05-18T01:47:18.329Z,85.65
2018-05-18T01:48:18.422Z,85.75
2018-05-18T01:49:18.336Z,86.13
2018-05-18T01:50:18.346Z,86.04
2018-05-18T01:51:18.361Z,85.89
2018-05-18T01:52:18.389Z,86.71
2018-05-18T01:53:18.424Z,86.80
2018-05-18T01:54:18.555Z,86.71
2018-05-18T01:55:18.447Z,86.66
2018-05-18T01:56:18.462Z,86.80
2018-05-18T01:57:18.446Z,86.66
2018-05-18T01:58:18.463Z,86.32
2018-05-18T01:59:18.580Z,86.52
2018-05-18T02:00:18.497Z,86.61
2018-05-18T02:01:18.514Z,86.71
2018-05-18T02:02:18.549Z,87.29
2018-05-18T02:03:18.563Z,87.43
2018-05-18T02:04:18.700Z,87.96
2018-05-18T02:05:18.598Z,88.10
2018-05-18T02:06:18.604Z,88.20
2018-05-18T02:07:18.610Z,88.49
2018-05-18T02:08:18.642Z,88.97
2018-05-18T02:09:18.724Z,88.59
2018-05-18T02:10:18.653Z,88.87
2018-05-18T02:11:18.655Z,88.59
2018-05-18T02:12:18.662Z,89.36
2018-05-18T02:13:18.709Z,89.36
2018-05-18T02:14:18.800Z,90.22
2018-05-18T02:15:18.709Z,90.12
2018-05-18T02:16:18.728Z,89.74
2018-05-18T02:17:18.744Z,89.93
2018-05-18T02:18:18.753Z,89.93
2018-05-18T02:19:18.870Z,89.93
2018-05-18T02:20:18.784Z,90.12
2018-05-18T02:21:18.797Z,90.12
2018-05-18T02:22:18.835Z,90.60
2018-05-18T02:23:18.825Z,89.93
2018-05-18T02:24:18.968Z,90.03
2018-05-18T02:25:18.881Z,90.60
2018-05-18T02:26:18.894Z,90.51
2018-05-18T02:27:18.909Z,90.60
2018-05-18T02:28:18.909Z,90.60
2018-05-18T02:29:19.015Z,90.51
2018-05-18T02:30:18.953Z,90.60
2018-05-18T02:31:18.939Z,90.51
2018-05-18T02:32:18.960Z,90.41
2018-05-18T02:33:18.972Z,89.83
2018-05-18T02:34:19.107Z,90.22
2018-05-18T02:35:19.009Z,90.70
2018-05-18T02:36:19.039Z,90.60
2018-05-18T02:37:19.030Z,90.60
2018-05-18T02:38:19.038Z,90.75
2018-05-18T02:39:19.161Z,90.51
2018-05-18T02:40:19.102Z,90.31
2018-05-18T02:41:19.082Z,90.70
2018-05-18T02:42:19.124Z,90.60
2018-05-18T02:43:19.142Z,91.13
2018-05-18T02:44:19.254Z,91.04
2018-05-18T02:45:19.147Z,91.23
2018-05-18T02:46:19.152Z,90.84
2018-05-18T02:47:19.169Z,91.33
2018-05-18T02:48:19.188Z,90.94
2018-05-18T02:49:19.308Z,90.94
2018-05-18T02:50:19.212Z,91.33
2018-05-18T02:51:19.254Z,91.42
2018-05-18T02:52:19.256Z,91.23
2018-05-18T02:53:19.286Z,91.42
2018-05-18T02:54:19.377Z,91.33
2018-05-18T02:55:19.280Z,91.42
2018-05-18T02:56:19.297Z,91.33
2018-05-18T02:57:19.334Z,92.10
2018-05-18T02:58:19.351Z,92.86
2018-05-18T02:59:19.334Z,92.19
2018-05-18T03:00:19.483Z,92.48
2018-05-18T03:01:19.374Z,92.86
2018-05-18T03:02:19.384Z,92.67
2018-05-18T03:03:19.396Z,92.86
2018-05-18T03:04:19.405Z,92.86
2018-05-18T03:05:19.554Z,92.67
2018-05-18T03:06:19.443Z,92.77
2018-05-18T03:07:19.468Z,92.96
2018-05-18T03:08:19.493Z,92.77
2018-05-18T03:09:19.480Z,92.96
2018-05-18T03:10:19.648Z,93.34
2018-05-18T03:11:19.513Z,93.34
2018-05-18T03:12:19.549Z,93.73
2018-05-18T03:13:19.535Z,93.63
2018-05-18T03:14:19.561Z,93.92
2018-05-18T03:15:19.675Z,93.82
2018-05-18T03:16:19.582Z,94.01
2018-05-18T03:17:19.599Z,94.01
2018-05-18T03:18:19.620Z,94.40
2018-05-18T03:19:19.645Z,94.40
2018-05-18T03:20:19.738Z,94.88
2018-05-18T03:21:19.648Z,94.88
2018-05-18T03:22:19.670Z,94.98
2018-05-18T03:23:19.676Z,94.78
2018-05-18T03:24:19.717Z,94.49
2018-05-18T03:25:19.819Z,94.69
2018-05-18T03:26:19.745Z,94.59
2018-05-18T03:27:19.743Z,95.36
2018-05-18T03:28:19.748Z,95.07
2018-05-18T03:29:19.763Z,95.26
2018-05-18T03:30:19.874Z,95.26
2018-05-18T03:31:19.817Z,96.13
2018-05-18T03:32:19.829Z,96.13
2018-05-18T03:33:19.845Z,96.99
2018-05-18T03:34:19.847Z,96.42
2018-05-18T03:35:19.946Z,96.61
2018-05-18T03:36:19.858Z,97.38
2018-05-18T03:37:19.872Z,97.28
2018-05-18T03:38:19.889Z,97.96
2018-05-18T03:39:19.897Z,97.66
2018-05-18T03:40:20.066Z,97.96
2018-05-18T03:41:19.930Z,98.05
2018-05-18T03:42:19.955Z,98.05
2018-05-18T03:43:19.965Z,98.05
2018-05-18T03:44:19.998Z,97.66
2018-05-18T03:45:20.168Z,97.66
2018-05-18T03:46:20.031Z,97.57
2018-05-18T03:47:20.040Z,97.57
2018-05-18T03:48:20.023Z,98.53
2018-05-18T03:49:20.038Z,97.76
2018-05-18T03:50:20.206Z,97.86
2018-05-18T03:51:20.077Z,97.76
2018-05-18T03:52:20.131Z,97.76
2018-05-18T03:53:20.184Z,97.86
2018-05-18T03:54:20.164Z,97.57
2018-05-18T03:55:20.295Z,97.57
2018-05-18T03:56:20.201Z,97.57
2018-05-18T03:57:20.232Z,97.76
2018-05-18T03:58:20.245Z,97.57
2018-05-18T03:59:20.243Z,97.57
2018-05-18T04:00:20.352Z,97.57
2018-05-18T04:01:20.272Z,97.09
2018-05-18T04:02:20.214Z,96.70
2018-05-18T04:03:20.222Z,96.42
2018-05-18T04:04:20.235Z,95.94
2018-05-18T04:05:20.353Z,96.22
2018-05-18T04:06:20.260Z,95.94
2018-05-18T04:07:20.308Z,95.75
2018-05-18T04:08:20.320Z,95.55
2018-05-18T04:09:20.335Z,95.45
2018-05-18T04:10:20.428Z,94.69
2018-05-18T04:11:20.446Z,94.59
2018-05-18T04:12:20.367Z,94.31
2018-05-18T04:13:20.376Z,94.49
2018-05-18T04:14:20.377Z,94.40
2018-05-18T04:15:20.393Z,94.26
2018-05-18T04:16:20.535Z,94.40
2018-05-18T04:17:20.419Z,94.06
2018-05-18T04:18:20.447Z,94.11
2018-05-18T04:19:20.480Z,94.16
2018-05-18T04:20:20.460Z,94.06
2018-05-18T04:21:20.586Z,94.16
2018-05-18T04:22:20.514Z,93.58
2018-05-18T04:23:20.530Z,93.58
2018-05-18T04:24:20.546Z,94.16
2018-05-18T04:25:20.546Z,93.92
2018-05-18T04:26:20.723Z,94.06
2018-05-18T04:27:20.559Z,94.64
2018-05-18T04:28:20.582Z,94.16
2018-05-18T04:29:20.592Z,93.96
2018-05-18T04:30:20.663Z,94.06
2018-05-18T04:31:20.799Z,92.91
2018-05-18T04:32:20.660Z,93.01
2018-05-18T04:33:20.649Z,92.91
2018-05-18T04:34:20.660Z,92.91
2018-05-18T04:35:20.677Z,92.81
2018-05-18T04:36:20.818Z,92.91
2018-05-18T04:37:20.728Z,93.49
2018-05-18T04:38:20.713Z,92.72
2018-05-18T04:39:20.760Z,92.81
2018-05-18T04:40:20.771Z,92.72
2018-05-18T04:41:20.925Z,92.72
2018-05-18T04:42:20.788Z,92.72
2018-05-18T04:43:20.808Z,92.24
2018-05-18T04:44:20.803Z,92.62
2018-05-18T04:45:20.849Z,92.72
2018-05-18T04:46:20.962Z,93.01
2018-05-18T04:47:20.872Z,92.91
2018-05-18T04:48:20.855Z,92.81
2018-05-18T04:49:20.876Z,92.81
2018-05-18T04:50:20.889Z,92.72
2018-05-18T04:51:21.026Z,92.05
2018-05-18T04:52:20.934Z,92.81
2018-05-18T04:53:20.930Z,92.33
2018-05-18T04:54:20.972Z,92.14
2018-05-18T04:55:20.983Z,92.43
2018-05-18T04:56:21.125Z,92.81
2018-05-18T04:57:20.993Z,92.52
2018-05-18T04:58:21.003Z,93.05
2018-05-18T04:59:21.013Z,92.91
2018-05-18T05:00:21.057Z,92.72
2018-05-18T05:01:21.155Z,93.19
2018-05-18T05:02:21.063Z,93.01
2018-05-18T05:03:21.096Z,93.49
2018-05-18T05:04:21.090Z,93.49
2018-05-18T05:05:21.219Z,93.92
2018-05-18T05:06:21.238Z,93.44
2018-05-18T05:07:21.153Z,93.82
2018-05-18T05:08:21.140Z,94.49
2018-05-18T05:09:21.168Z,94.49
2018-05-18T05:10:21.195Z,94.78
2018-05-18T05:11:21.343Z,94.54
2018-05-18T05:12:21.196Z,94.98
2018-05-18T05:13:21.245Z,95.07
2018-05-18T05:14:21.253Z,94.40
2018-05-18T05:15:21.247Z,94.59
2018-05-18T05:16:21.255Z,94.59
2018-05-18T05:17:21.373Z,95.17
2018-05-18T05:18:21.291Z,95.36
2018-05-18T05:19:21.326Z,95.36
2018-05-18T05:20:21.336Z,95.26
2018-05-18T05:21:21.324Z,95.94
2018-05-18T05:22:21.464Z,95.84
2018-05-18T05:23:21.356Z,96.13
2018-05-18T05:24:21.394Z,96.13
2018-05-18T05:25:21.385Z,96.03
2018-05-18T05:26:21.428Z,96.61
2018-05-18T05:27:21.524Z,96.03
2018-05-18T05:28:21.431Z,96.89
2018-05-18T05:29:21.442Z,97.19
2018-05-18T05:30:21.445Z,97.38
2018-05-18T05:31:21.495Z,97.96
2018-05-18T05:32:21.657Z,98.05
2018-05-18T05:33:21.523Z,98.43
2018-05-18T05:34:21.518Z,98.82
2018-05-18T05:35:21.550Z,99.01
2018-05-18T05:36:21.539Z,99.30
2018-05-18T05:37:21.698Z,99.92
2018-05-18T05:38:21.566Z,99.99
2018-05-18T05:39:21.576Z,99.99
2018-05-18T05:40:21.591Z,99.99
2018-05-18T05:41:21.609Z,99.99
2018-05-18T05:42:21.722Z,99.99
2018-05-18T05:43:21.634Z,99.99
2018-05-18T05:44:21.647Z,99.99
2018-05-18T05:45:21.689Z,99.99
2018-05-18T05:46:21.686Z,99.99
2018-05-18T05:47:21.787Z,99.99
2018-05-18T05:48:21.704Z,99.99
2018-05-18T05:49:21.729Z,99.99
2018-05-18T05:50:21.737Z,99.99
2018-05-18T05:51:21.776Z,99.99
2018-05-18T05:52:21.907Z,99.99
2018-05-18T05:53:21.804Z,99.99
2018-05-18T05:54:21.821Z,99.99
2018-05-18T05:55:21.804Z,99.99
2018-05-18T05:56:21.840Z,99.05
2018-05-18T05:57:22.004Z,99.05
2018-05-18T05:58:21.844Z,99.25
2018-05-18T05:59:21.880Z,98.67
2018-05-18T06:00:21.897Z,99.15
2018-05-18T06:01:21.912Z,99.25
2018-05-18T06:02:21.995Z,99.25
2018-05-18T06:03:21.912Z,99.82
2018-05-18T06:04:21.950Z,99.34
2018-05-18T06:05:22.021Z,99.25
2018-05-18T06:06:21.982Z,99.30
2018-05-18T06:07:22.098Z,99.10
2018-05-18T06:08:22.008Z,98.86
2018-05-18T06:09:22.018Z,98.72
2018-05-18T06:10:22.019Z,99.15
2018-05-18T06:11:22.045Z,99.10
2018-05-18T06:12:22.240Z,99.40
2018-05-18T06:13:22.081Z,99.78
2018-05-18T06:14:22.075Z,99.30
2018-05-18T06:15:22.105Z,98.91
2018-05-18T06:16:22.097Z,99.20
2018-05-18T06:17:22.260Z,98.63
2018-05-18T06:18:22.116Z,98.72
2018-05-18T06:19:22.164Z,99.20
2018-05-18T06:20:22.150Z,98.53
2018-05-18T06:21:22.175Z,98.53
2018-05-18T06:22:22.289Z,98.72
2018-05-18T06:23:22.198Z,98.82
2018-05-18T06:24:22.325Z,98.43
2018-05-18T06:25:22.224Z,98.24
2018-05-18T06:26:22.259Z,98.53
2018-05-18T06:27:22.376Z,97.96
2018-05-18T06:28:22.262Z,98.14
2018-05-18T06:29:22.278Z,98.48
2018-05-18T06:30:22.285Z,98.19
2018-05-18T06:31:22.302Z,98.77
2018-05-18T06:32:22.441Z,98.86
2018-05-18T06:33:22.331Z,99.82
2018-05-18T06:34:22.346Z,99.54
2018-05-18T06:35:22.381Z,99.54
2018-05-18T06:36:22.395Z,99.99
2018-05-18T06:37:22.502Z,99.99
2018-05-18T06:38:22.394Z,99.99
2018-05-18T06:39:22.412Z,99.99
2018-05-18T06:40:22.456Z,99.99
2018-05-18T06:41:22.477Z,99.99
2018-05-18T06:42:22.580Z,99.99
2018-05-18T06:43:22.473Z,99.99
2018-05-18T06:44:22.505Z,99.99
2018-05-18T06:45:22.506Z,99.99
2018-05-18T06:46:22.537Z,99.99
2018-05-18T06:47:22.621Z,99.99
2018-05-18T06:48:22.531Z,99.99
2018-05-18T06:49:22.556Z,99.99
2018-05-18T06:50:22.566Z,99.99
2018-05-18T06:51:22.583Z,99.99
2018-05-18T06:52:22.691Z,99.99
2018-05-18T06:53:22.608Z,99.99
2018-05-18T06:54:22.636Z,99.99
2018-05-18T06:55:22.633Z,99.99
2018-05-18T06:56:22.646Z,99.99
2018-05-18T06:57:22.813Z,99.99
2018-05-18T06:58:22.672Z,99.99
2018-05-18T06:59:22.716Z,99.99
2018-05-18T07:00:22.719Z,99.99
2018-05-18T07:01:22.743Z,99.99
2018-05-18T07:02:22.884Z,99.99
2018-05-18T07:03:22.746Z,99.99
2018-05-18T07:04:22.792Z,99.99
2018-05-18T07:05:22.781Z,99.99
2018-05-18T07:06:22.811Z,99.99
2018-05-18T07:07:22.901Z,99.99
2018-05-18T07:08:22.810Z,99.99
2018-05-18T07:09:22.848Z,99.99
2018-05-18T07:10:22.868Z,99.99
2018-05-18T07:11:22.852Z,99.99
2018-05-18T07:12:22.977Z,99.99
2018-05-18T07:13:22.881Z,99.99
2018-05-18T07:14:22.920Z,99.99
2018-05-18T07:15:22.902Z,99.99
2018-05-18T07:16:22.921Z,99.99
2018-05-18T07:17:23.037Z,99.99
2018-05-18T07:18:22.973Z,99.99
2018-05-18T07:19:22.991Z,99.99
2018-05-18T07:20:23.001Z,99.99
2018-05-18T07:21:22.989Z,99.99
2018-05-18T07:22:23.199Z,99.99
2018-05-18T07:23:23.018Z,99.99
2018-05-18T07:24:23.033Z,99.99
2018-05-18T07:25:23.044Z,99.99
2018-05-18T07:26:23.056Z,99.99
2018-05-18T07:27:23.205Z,99.99
2018-05-18T07:28:23.089Z,99.99
2018-05-18T07:29:23.130Z,99.99
2018-05-18T07:30:23.112Z,99.99
2018-05-18T07:31:23.130Z,99.99
2018-05-18T07:32:23.252Z,99.99
2018-05-18T07:33:23.159Z,99.99
2018-05-18T07:34:23.196Z,99.99
2018-05-18T07:35:23.185Z,99.99
2018-05-18T07:36:23.222Z,99.99
2018-05-18T07:37:23.311Z,99.99
2018-05-18T07:38:23.227Z,99.99
2018-05-18T07:39:23.247Z,99.99
2018-05-18T07:40:23.256Z,99.99
2018-05-18T07:41:23.300Z,99.99
2018-05-18T07:42:23.282Z,99.99
2018-05-18T07:43:23.468Z,99.99
2018-05-18T07:44:23.315Z,99.99
2018-05-18T07:45:23.354Z,99.99
2018-05-18T07:46:23.360Z,99.99
2018-05-18T07:47:23.351Z,99.99
2018-05-18T07:48:23.528Z,99.99
2018-05-18T07:49:23.385Z,99.99
2018-05-18T07:50:23.392Z,99.99
2018-05-18T07:51:23.408Z,99.99
2018-05-18T07:52:23.426Z,99.99
2018-05-18T07:53:23.532Z,99.99
2018-05-18T07:54:23.456Z,99.99
2018-05-18T07:55:23.462Z,99.99
2018-05-18T07:56:23.478Z,99.99
2018-05-18T07:57:23.516Z,99.99
2018-05-18T07:58:23.629Z,99.99
2018-05-18T07:59:23.546Z,99.99
2018-05-18T08:00:23.559Z,99.99
2018-05-18T08:01:23.611Z,99.99
2018-05-18T08:02:23.568Z,99.99
2018-05-18T08:03:23.674Z,99.99
2018-05-18T08:04:23.584Z,99.99
2018-05-18T08:05:23.628Z,99.99
2018-05-18T08:06:23.616Z,99.99
2018-05-18T08:07:23.638Z,99.99
2018-05-18T08:08:23.773Z,99.99
2018-05-18T08:09:23.687Z,99.99
2018-05-18T08:10:23.715Z,99.99
2018-05-18T08:11:23.685Z,99.99
2018-05-18T08:12:23.724Z,99.99
2018-05-18T08:13:23.889Z,99.99
2018-05-18T08:14:23.732Z,99.99
2018-05-18T08:15:23.742Z,99.99
2018-05-18T08:16:23.752Z,99.99
2018-05-18T08:17:23.798Z,99.99
2018-05-18T08:18:23.883Z,99.99
2018-05-18T08:19:23.792Z,99.99
2018-05-18T08:20:23.836Z,99.99
2018-05-18T08:21:23.833Z,99.99
2018-05-18T08:22:23.830Z,99.99
2018-05-18T08:23:23.983Z,99.99
2018-05-18T08:24:23.874Z,99.99
2018-05-18T08:25:23.905Z,99.99
2018-05-18T08:26:23.889Z,99.99
2018-05-18T08:27:23.906Z,99.99
2018-05-18T08:28:24.018Z,99.99
2018-05-18T08:29:23.957Z,99.99
2018-05-18T08:30:23.944Z,99.99
2018-05-18T08:31:23.967Z,99.99
2018-05-18T08:32:23.981Z,99.99
2018-05-18T08:33:24.091Z,99.99
2018-05-18T08:34:24.001Z,99.99
2018-05-18T08:35:24.018Z,99.99
2018-05-18T08:36:24.040Z,99.99
2018-05-18T08:37:24.050Z,99.99
2018-05-18T08:38:24.231Z,99.99
2018-05-18T08:39:24.082Z,99.99
2018-05-18T08:40:24.116Z,99.99
2018-05-18T08:41:24.101Z,99.99
2018-05-18T08:42:24.137Z,99.99
2018-05-18T08:43:24.256Z,99.99
2018-05-18T08:44:24.183Z,99.99
2018-05-18T08:45:24.157Z,99.99
2018-05-18T08:46:24.170Z,99.99
2018-05-18T08:47:24.198Z,99.99
2018-05-18T08:48:24.319Z,99.99
2018-05-18T08:49:24.239Z,99.99
2018-05-18T08:50:24.302Z,99.99
2018-05-18T08:51:24.264Z,99.99
2018-05-18T08:52:24.257Z,99.99
2018-05-18T08:53:24.366Z,99.99
2018-05-18T08:54:24.296Z,99.99
2018-05-18T08:55:24.295Z,99.99
2018-05-18T08:56:24.312Z,99.99
2018-05-18T08:57:24.349Z,99.99
2018-05-18T08:58:24.485Z,99.99
2018-05-18T08:59:24.349Z,99.99
2018-05-18T09:00:24.359Z,99.99
2018-05-18T09:01:24.381Z,99.99
2018-05-18T09:02:24.415Z,99.99
2018-05-18T09:03:24.553Z,99.99
2018-05-18T09:04:24.448Z,99.99
2018-05-18T09:05:24.433Z,99.99
2018-05-18T09:06:24.470Z,99.99
2018-05-18T09:07:24.460Z,99.99
2018-05-18T09:08:24.582Z,99.99
2018-05-18T09:09:24.515Z,99.99
2018-05-18T09:10:24.526Z,99.99
2018-05-18T09:11:24.540Z,99.99
2018-05-18T09:12:24.530Z,99.99
2018-05-18T09:13:24.669Z,99.99
2018-05-18T09:14:24.580Z,99.99
2018-05-18T09:15:24.599Z,99.99
2018-05-18T09:16:24.613Z,99.99
2018-05-18T09:17:24.596Z,99.99
2018-05-18T09:18:24.712Z,99.99
2018-05-18T09:19:24.628Z,99.99
2018-05-18T09:20:24.644Z,99.99
2018-05-18T09:21:24.653Z,99.99
2018-05-18T09:22:24.667Z,99.99
2018-05-18T09:23:24.777Z,99.99
2018-05-18T09:24:24.691Z,99.99
2018-05-18T09:25:24.735Z,99.99
2018-05-18T09:26:24.762Z,99.99
2018-05-18T09:27:24.733Z,99.99
2018-05-18T09:28:24.872Z,99.99
2018-05-18T09:29:24.768Z,99.99
2018-05-18T09:30:24.789Z,99.99
2018-05-18T09:31:24.791Z,99.99
2018-05-18T09:32:24.808Z,99.99
2018-05-18T09:33:24.919Z,99.99
2018-05-18T09:34:24.847Z,99.99
2018-05-18T09:35:24.842Z,99.99
2018-05-18T09:36:24.864Z,99.99
2018-05-18T09:37:24.881Z,99.99
2018-05-18T09:38:24.981Z,99.99
2018-05-18T09:39:24.923Z,99.99
2018-05-18T09:40:24.914Z,99.99
2018-05-18T09:41:24.932Z,99.99
2018-05-18T09:42:24.940Z,99.99
2018-05-18T09:43:25.065Z,99.99
2018-05-18T09:44:24.995Z,99.99
2018-05-18T09:45:24.980Z,99.99
2018-05-18T09:46:25.000Z,99.99
2018-05-18T09:47:25.019Z,99.99
2018-05-18T09:48:25.119Z,99.99
2018-05-18T09:49:25.032Z,99.99
2018-05-18T09:50:25.055Z,99.99
2018-05-18T09:51:25.077Z,99.99
2018-05-18T09:52:25.079Z,99.99
2018-05-18T09:53:25.242Z,99.99
2018-05-18T09:54:25.290Z,99.99
2018-05-18T09:55:25.293Z,99.99
2018-05-18T09:56:25.140Z,99.99
2018-05-18T09:57:25.178Z,99.99
2018-05-18T09:58:25.160Z,99.99
2018-05-18T09:59:25.273Z,99.99
2018-05-18T10:00:25.210Z,99.99
2018-05-18T10:01:25.213Z,99.99
2018-05-18T10:02:25.215Z,99.99
2018-05-18T10:03:25.253Z,99.99
2018-05-18T10:04:25.396Z,99.99
2018-05-18T10:05:25.273Z,99.99
2018-05-18T10:06:25.268Z,99.99
2018-05-18T10:07:25.290Z,99.99
2018-05-18T10:08:25.322Z,99.99
2018-05-18T10:09:25.411Z,99.99
2018-05-18T10:10:25.353Z,99.99
2018-05-18T10:11:25.338Z,99.99
2018-05-18T10:12:25.468Z,99.99
2018-05-18T10:13:25.394Z,99.99
2018-05-18T10:14:25.545Z,99.99
2018-05-18T10:15:25.423Z,99.99
2018-05-18T10:16:25.436Z,99.99
2018-05-18T10:17:25.451Z,99.99
2018-05-18T10:18:25.477Z,99.99
2018-05-18T10:19:25.550Z,99.99
2018-05-18T10:20:25.463Z,99.99
2018-05-18T10:21:25.477Z,99.99
2018-05-18T10:22:25.490Z,99.99
2018-05-18T10:23:25.504Z,99.99
2018-05-18T10:24:25.669Z,99.99
2018-05-18T10:25:25.534Z,99.99
2018-05-18T10:26:25.576Z,99.99
2018-05-18T10:27:25.585Z,99.99
2018-05-18T10:28:25.603Z,99.99
2018-05-18T10:29:25.697Z,99.99
2018-05-18T10:30:25.612Z,99.99
2018-05-18T10:31:25.621Z,99.99
2018-05-18T10:32:25.658Z,99.99
2018-05-18T10:33:25.654Z,99.99
2018-05-18T10:34:25.808Z,99.99
2018-05-18T10:35:25.682Z,99.99
2018-05-18T10:36:25.715Z,99.99
2018-05-18T10:37:25.702Z,99.99
2018-05-18T10:38:25.717Z,99.99
2018-05-18T10:39:25.877Z,99.99
2018-05-18T10:40:25.742Z,99.99
2018-05-18T10:41:25.787Z,99.99
2018-05-18T10:42:25.773Z,99.99
2018-05-18T10:43:25.809Z,99.99
2018-05-18T10:44:25.904Z,99.99
2018-05-18T10:45:25.917Z,99.99
2018-05-18T10:46:25.826Z,99.99
2018-05-18T10:47:25.842Z,99.99
2018-05-18T10:48:25.861Z,99.99
2018-05-18T10:49:26.072Z,99.99
2018-05-18T10:50:25.910Z,99.99
2018-05-18T10:51:25.940Z,99.73
2018-05-18T10:52:25.919Z,99.44
2018-05-18T10:53:25.934Z,98.63
2018-05-18T10:54:26.065Z,98.53
2018-05-18T10:55:25.966Z,98.24
2018-05-18T10:56:25.968Z,97.47
2018-05-18T10:57:25.984Z,97.76
2018-05-18T10:58:26.000Z,96.42
2018-05-18T10:59:26.116Z,95.65
2018-05-18T11:00:26.031Z,95.45
2018-05-18T11:01:26.042Z,94.59
2018-05-18T11:02:26.088Z,93.63
2018-05-18T11:03:26.097Z,92.86
2018-05-18T11:04:26.199Z,93.15
2018-05-18T11:05:26.206Z,92.19
2018-05-18T11:06:26.139Z,92.81
2018-05-18T11:07:26.133Z,92.05
2018-05-18T11:08:26.145Z,91.75
2018-05-18T11:09:26.290Z,91.95
2018-05-18T11:10:26.178Z,92.72
2018-05-18T11:11:26.194Z,92.33
2018-05-18T11:12:26.232Z,91.28
2018-05-18T11:13:26.224Z,89.74
2018-05-18T11:14:26.335Z,89.07
2018-05-18T11:15:26.249Z,89.36
2018-05-18T11:16:26.296Z,89.07
2018-05-18T11:17:26.307Z,88.82
2018-05-18T11:18:26.298Z,86.99
2018-05-18T11:19:26.436Z,87.38
2018-05-18T11:20:26.386Z,86.32
2018-05-18T11:21:26.395Z,86.04
2018-05-18T11:22:26.387Z,83.34
2018-05-18T11:23:26.409Z,83.15
2018-05-18T11:24:26.493Z,81.71
2018-05-18T11:25:26.435Z,81.13
2018-05-18T11:26:26.428Z,80.36
2018-05-18T11:27:26.463Z,80.27
2018-05-18T11:28:26.454Z,81.84
2018-05-18T11:29:26.581Z,80.40
2018-05-18T11:30:26.482Z,79.92
2018-05-18T11:31:26.527Z,79.44
2018-05-18T11:32:26.545Z,79.35
2018-05-18T11:33:26.537Z,77.13
2018-05-18T11:34:26.725Z,76.26
2018-05-18T11:35:26.569Z,76.65
2018-05-18T11:36:26.609Z,75.24
2018-05-18T11:37:26.623Z,75.73
2018-05-18T11:38:26.643Z,74.38
2018-05-18T11:39:26.781Z,74.09
2018-05-18T11:40:26.649Z,73.42
2018-05-18T11:41:26.693Z,74.09
2018-05-18T11:42:26.682Z,74.63
2018-05-18T11:43:26.712Z,75.02
2018-05-18T11:44:26.847Z,76.07
2018-05-18T11:45:26.730Z,75.44
2018-05-18T11:46:26.750Z,74.82
2018-05-18T11:47:26.792Z,74.76
2018-05-18T11:48:26.786Z,74.86
2018-05-18T11:49:26.949Z,74.67
2018-05-18T11:50:26.814Z,74.57
2018-05-18T11:51:26.836Z,73.42
2018-05-18T11:52:26.878Z,71.49
2018-05-18T11:53:26.875Z,71.59
2018-05-18T11:54:26.978Z,71.78
2018-05-18T11:55:26.913Z,71.49
2018-05-18T11:56:26.914Z,71.40
2018-05-18T11:57:26.955Z,71.49
2018-05-18T11:58:26.978Z,70.15
2018-05-18T11:59:27.128Z,71.59
2018-05-18T12:00:26.992Z,69.41
2018-05-18T12:01:27.000Z,67.87
2018-05-18T12:02:27.118Z,68.93
2018-05-18T12:03:27.036Z,67.58
2018-05-18T12:04:27.155Z,66.46
2018-05-18T12:05:27.079Z,65.88
2018-05-18T12:06:27.118Z,65.69
2018-05-18T12:07:27.101Z,63.95
2018-05-18T12:08:27.246Z,62.73
2018-05-18T12:09:27.256Z,63.31
2018-05-18T12:10:27.159Z,61.96
2018-05-18T12:11:27.179Z,62.15
2018-05-18T12:12:27.204Z,61.71
2018-05-18T12:13:27.217Z,60.26
2018-05-18T12:14:27.364Z,58.42
2018-05-18T12:15:27.264Z,58.75
2018-05-18T12:16:27.293Z,57.01
2018-05-18T12:17:27.322Z,56.04
2018-05-18T12:18:27.311Z,56.62
2018-05-18T12:19:27.431Z,57.20
2018-05-18T12:20:27.410Z,57.29
2018-05-18T12:21:27.367Z,57.39
2018-05-18T12:22:27.397Z,57.39
2018-05-18T12:23:27.408Z,56.52
2018-05-18T12:24:27.591Z,56.24
2018-05-18T12:25:27.445Z,54.98
2018-05-18T12:26:27.469Z,55.01
2018-05-18T12:27:27.510Z,53.37
2018-05-18T12:28:27.513Z,52.69
2018-05-18T12:29:27.703Z,51.65
2018-05-18T12:30:27.574Z,51.85
2018-05-18T12:31:27.601Z,51.46
2018-05-18T12:32:27.591Z,51.37
2018-05-18T12:33:27.634Z,51.27
2018-05-18T12:34:27.755Z,51.37
2018-05-18T12:35:27.679Z,51.37
2018-05-18T12:36:27.670Z,50.91
2018-05-18T12:37:27.695Z,51.59
2018-05-18T12:38:27.785Z,49.85
2018-05-18T12:39:27.869Z,49.10
2018-05-18T12:40:27.780Z,48.30
2018-05-18T12:41:27.777Z,48.30
2018-05-18T12:42:27.798Z,49.07
2018-05-18T12:43:27.824Z,48.88
2018-05-18T12:44:27.993Z,48.59
2018-05-18T12:45:27.889Z,49.07
2018-05-18T12:46:27.882Z,49.07
2018-05-18T12:47:27.901Z,50.04
2018-05-18T12:48:27.949Z,50.04
2018-05-18T12:49:28.051Z,50.50
2018-05-18T12:50:27.973Z,50.79
2018-05-18T12:51:27.989Z,50.79
2018-05-18T12:52:28.007Z,49.95